sensor_id;sensor_type;location;lat;lon;timestamp;temperature;humidity
35678;DHT22;21791;42.828;74.582;2022-12-29T00:01:35;-1.50;99.90
35678;DHT22;21791;42.828;74.582;2022-12-29T00:04:02;-1.70;99.90
35678;DHT22;21791;42.828;74.582;2022-12-29T00:06:28;-1.80;99.90
35678;DHT22;21791;42.828;74.582;2022-12-29T00:08:54;-1.70;99.90
35678;DHT22;21791;42.828;74.582;2022-12-29T00:11:24;-1.40;99.90
35678;DHT22;21791;42.828;74.582;2022-12-29T00:13:52;-1.30;99.90
35678;DHT22;21791;42.828;74.582;2022-12-29T00:16:40;-1.60;99.90
35678;DHT22;21791;42.828;74.582;2022-12-29T00:19:06;-1.80;99.90
35678;DHT22;21791;42.828;74.582;2022-12-29T00:21:53;-1.90;99.90
35678;DHT22;21791;42.828;74.582;2022-12-29T00:24:38;-2.10;99.90
35678;DHT22;21791;42.828;74.582;2022-12-29T00:27:22;-2.20;99.90
35678;DHT22;21791;42.828;74.582;2022-12-29T00:30:13;-2.20;99.90
35678;DHT22;21791;42.828;74.582;2022-12-29T00:32:58;-2.20;99.90
35678;DHT22;21791;42.828;74.582;2022-12-29T00:35:48;-2.30;99.90
35678;DHT22;21791;42.828;74.582;2022-12-29T00:38:18;-2.30;99.90
35678;DHT22;21791;42.828;74.582;2022-12-29T00:41:03;-2.40;99.90
35678;DHT22;21791;42.828;74.582;2022-12-29T00:43:48;-1.80;99.90
35678;DHT22;21791;42.828;74.582;2022-12-29T00:46:40;-1.20;99.90
35678;DHT22;21791;42.828;74.582;2022-12-29T00:49:08;-0.80;99.90
35678;DHT22;21791;42.828;74.582;2022-12-29T00:51:54;-0.70;99.90
35678;DHT22;21791;42.828;74.582;2022-12-29T00:54:21;-0.80;99.90
35678;DHT22;21791;42.828;74.582;2022-12-29T00:56:49;-0.90;99.90
35678;DHT22;21791;42.828;74.582;2022-12-29T00:59:16;-1.10;99.90
35678;DHT22;21791;42.828;74.582;2022-12-29T01:01:44;-1.20;99.90
35678;DHT22;21791;42.828;74.582;2022-12-29T01:04:11;-1.30;99.90
35678;DHT22;21791;42.828;74.582;2022-12-29T01:06:38;-1.30;99.90
35678;DHT22;21791;42.828;74.582;2022-12-29T01:09:06;-1.40;99.90
35678;DHT22;21791;42.828;74.582;2022-12-29T01:11:51;-1.30;99.90
35678;DHT22;21791;42.828;74.582;2022-12-29T01:14:19;-1.40;99.90
35678;DHT22;21791;42.828;74.582;2022-12-29T01:16:46;-1.50;99.90
35678;DHT22;21791;42.828;74.582;2022-12-29T01:19:14;-1.60;99.90
35678;DHT22;21791;42.828;74.582;2022-12-29T01:21:40;-1.50;99.90
35678;DHT22;21791;42.828;74.582;2022-12-29T01:24:07;-1.50;99.90
35678;DHT22;21791;42.828;74.582;2022-12-29T01:26:34;-1.30;99.90
35678;DHT22;21791;42.828;74.582;2022-12-29T01:29:00;-1.20;99.90
35678;DHT22;21791;42.828;74.582;2022-12-29T01:31:26;-1.30;99.90
35678;DHT22;21791;42.828;74.582;2022-12-29T01:33:53;-1.20;99.90
35678;DHT22;21791;42.828;74.582;2022-12-29T01:36:19;-1.10;99.90
35678;DHT22;21791;42.828;74.582;2022-12-29T01:38:46;-0.80;99.90
35678;DHT22;21791;42.828;74.582;2022-12-29T01:41:15;-0.70;99.90
35678;DHT22;21791;42.828;74.582;2022-12-29T01:43:43;-0.70;99.90
35678;DHT22;21791;42.828;74.582;2022-12-29T01:49:05;-0.70;99.90
35678;DHT22;21791;42.828;74.582;2022-12-29T01:51:40;-0.50;99.90
35678;DHT22;21791;42.828;74.582;2022-12-29T01:54:13;-0.40;99.90
35678;DHT22;21791;42.828;74.582;2022-12-29T01:56:42;-0.60;99.90
35678;DHT22;21791;42.828;74.582;2022-12-29T01:59:13;-0.90;99.90
35678;DHT22;21791;42.828;74.582;2022-12-29T02:01:40;-1.00;99.90
35678;DHT22;21791;42.828;74.582;2022-12-29T02:04:09;-1.10;99.90
35678;DHT22;21791;42.828;74.582;2022-12-29T02:06:49;-1.10;99.90
35678;DHT22;21791;42.828;74.582;2022-12-29T02:09:18;-1.30;99.90
35678;DHT22;21791;42.828;74.582;2022-12-29T02:11:44;-1.40;99.90
35678;DHT22;21791;42.828;74.582;2022-12-29T02:14:12;-1.50;99.90
35678;DHT22;21791;42.828;74.582;2022-12-29T02:31:29;-2.00;99.90
35678;DHT22;21791;42.828;74.582;2022-12-29T02:34:10;-1.90;99.90
35678;DHT22;21791;42.828;74.582;2022-12-29T02:39:36;-1.80;99.90
35678;DHT22;21791;42.828;74.582;2022-12-29T02:45:21;-1.70;99.90
35678;DHT22;21791;42.828;74.582;2022-12-29T02:48:15;-1.70;99.90
35678;DHT22;21791;42.828;74.582;2022-12-29T02:51:12;-1.70;99.90
35678;DHT22;21791;42.828;74.582;2022-12-29T02:53:41;-1.70;99.90
35678;DHT22;21791;42.828;74.582;2022-12-29T02:56:26;-1.60;99.90
35678;DHT22;21791;42.828;74.582;2022-12-29T02:58:52;-1.70;99.90
35678;DHT22;21791;42.828;74.582;2022-12-29T03:04:26;-1.50;99.90
35678;DHT22;21791;42.828;74.582;2022-12-29T03:07:11;-1.30;99.90
35678;DHT22;21791;42.828;74.582;2022-12-29T03:15:46;-1.20;99.90
35678;DHT22;21791;42.828;74.582;2022-12-29T03:18:35;-1.10;99.90
35678;DHT22;21791;42.828;74.582;2022-12-29T03:21:10;-1.10;99.90
35678;DHT22;21791;42.828;74.582;2022-12-29T03:23:39;-1.10;99.90
35678;DHT22;21791;42.828;74.582;2022-12-29T03:26:10;-0.80;99.90
35678;DHT22;21791;42.828;74.582;2022-12-29T03:28:49;-0.70;99.90
35678;DHT22;21791;42.828;74.582;2022-12-29T03:31:17;-0.70;99.90
35678;DHT22;21791;42.828;74.582;2022-12-29T03:33:46;-0.50;99.90
35678;DHT22;21791;42.828;74.582;2022-12-29T03:36:20;-0.30;99.90
35678;DHT22;21791;42.828;74.582;2022-12-29T03:38:59;-0.20;99.90
35678;DHT22;21791;42.828;74.582;2022-12-29T03:41:30;-0.30;99.90
35678;DHT22;21791;42.828;74.582;2022-12-29T03:43:58;-0.20;99.90
35678;DHT22;21791;42.828;74.582;2022-12-29T03:46:24;0.10;99.90
35678;DHT22;21791;42.828;74.582;2022-12-29T03:48:51;0.80;99.90
35678;DHT22;21791;42.828;74.582;2022-12-29T03:51:17;1.40;99.90
35678;DHT22;21791;42.828;74.582;2022-12-29T03:53:43;2.30;99.90
35678;DHT22;21791;42.828;74.582;2022-12-29T03:56:10;3.10;99.90
35678;DHT22;21791;42.828;74.582;2022-12-29T03:58:36;3.70;99.90
35678;DHT22;21791;42.828;74.582;2022-12-29T04:01:02;4.00;99.90
35678;DHT22;21791;42.828;74.582;2022-12-29T04:03:28;4.30;99.90
35678;DHT22;21791;42.828;74.582;2022-12-29T04:05:55;4.60;99.40
35678;DHT22;21791;42.828;74.582;2022-12-29T04:08:22;4.80;97.50
35678;DHT22;21791;42.828;74.582;2022-12-29T04:10:49;5.10;96.10
35678;DHT22;21791;42.828;74.582;2022-12-29T04:13:16;5.50;94.10
35678;DHT22;21791;42.828;74.582;2022-12-29T04:15:45;5.60;91.90
35678;DHT22;21791;42.828;74.582;2022-12-29T04:18:13;5.50;91.40
35678;DHT22;21791;42.828;74.582;2022-12-29T04:20:39;5.70;91.20
35678;DHT22;21791;42.828;74.582;2022-12-29T04:23:24;5.90;89.90
35678;DHT22;21791;42.828;74.582;2022-12-29T04:25:50;6.10;87.60
35678;DHT22;21791;42.828;74.582;2022-12-29T04:28:17;6.40;86.80
35678;DHT22;21791;42.828;74.582;2022-12-29T04:30:44;6.70;84.50
35678;DHT22;21791;42.828;74.582;2022-12-29T04:33:11;6.80;83.60
35678;DHT22;21791;42.828;74.582;2022-12-29T04:35:37;6.80;79.40
35678;DHT22;21791;42.828;74.582;2022-12-29T04:38:04;6.60;78.40
35678;DHT22;21791;42.828;74.582;2022-12-29T04:40:31;6.50;78.70
35678;DHT22;21791;42.828;74.582;2022-12-29T04:42:57;6.40;78.20
35678;DHT22;21791;42.828;74.582;2022-12-29T04:45:24;6.30;81.20
35678;DHT22;21791;42.828;74.582;2022-12-29T04:47:51;6.20;79.00
35678;DHT22;21791;42.828;74.582;2022-12-29T04:50:17;6.10;80.10
35678;DHT22;21791;42.828;74.582;2022-12-29T04:52:43;6.20;79.30
35678;DHT22;21791;42.828;74.582;2022-12-29T04:55:10;6.40;78.10
35678;DHT22;21791;42.828;74.582;2022-12-29T04:57:37;6.50;77.50
35678;DHT22;21791;42.828;74.582;2022-12-29T05:00:04;6.90;77.30
35678;DHT22;21791;42.828;74.582;2022-12-29T05:02:31;7.00;77.50
35678;DHT22;21791;42.828;74.582;2022-12-29T05:04:58;6.80;75.90
35678;DHT22;21791;42.828;74.582;2022-12-29T05:07:24;7.40;77.70
35678;DHT22;21791;42.828;74.582;2022-12-29T05:09:51;7.30;74.00
35678;DHT22;21791;42.828;74.582;2022-12-29T05:12:17;7.60;73.80
35678;DHT22;21791;42.828;74.582;2022-12-29T05:14:44;8.20;74.70
35678;DHT22;21791;42.828;74.582;2022-12-29T05:17:11;8.40;69.50
35678;DHT22;21791;42.828;74.582;2022-12-29T05:19:37;8.20;67.80
35678;DHT22;21791;42.828;74.582;2022-12-29T05:22:04;7.80;66.10
35678;DHT22;21791;42.828;74.582;2022-12-29T05:24:31;7.70;69.00
35678;DHT22;21791;42.828;74.582;2022-12-29T05:26:57;7.30;68.40
35678;DHT22;21791;42.828;74.582;2022-12-29T05:29:24;6.40;70.00
35678;DHT22;21791;42.828;74.582;2022-12-29T05:31:51;5.90;73.20
35678;DHT22;21791;42.828;74.582;2022-12-29T05:34:17;6.20;74.70
35678;DHT22;21791;42.828;74.582;2022-12-29T05:36:43;5.90;75.10
35678;DHT22;21791;42.828;74.582;2022-12-29T05:39:10;5.60;78.50
35678;DHT22;21791;42.828;74.582;2022-12-29T05:41:36;5.60;81.80
35678;DHT22;21791;42.828;74.582;2022-12-29T05:44:03;5.70;84.20
35678;DHT22;21791;42.828;74.582;2022-12-29T05:46:29;5.90;84.70
35678;DHT22;21791;42.828;74.582;2022-12-29T05:48:56;5.80;84.70
35678;DHT22;21791;42.828;74.582;2022-12-29T05:51:22;6.10;85.00
35678;DHT22;21791;42.828;74.582;2022-12-29T05:53:49;6.20;83.90
35678;DHT22;21791;42.828;74.582;2022-12-29T05:56:16;6.10;84.30
35678;DHT22;21791;42.828;74.582;2022-12-29T05:58:42;6.00;81.80
35678;DHT22;21791;42.828;74.582;2022-12-29T06:01:09;6.00;84.10
35678;DHT22;21791;42.828;74.582;2022-12-29T06:03:35;6.30;83.20
35678;DHT22;21791;42.828;74.582;2022-12-29T06:06:02;6.00;83.70
35678;DHT22;21791;42.828;74.582;2022-12-29T06:08:28;5.60;84.90
35678;DHT22;21791;42.828;74.582;2022-12-29T06:10:55;5.50;86.40
35678;DHT22;21791;42.828;74.582;2022-12-29T06:13:22;5.60;88.30
35678;DHT22;21791;42.828;74.582;2022-12-29T06:15:49;5.60;88.10
35678;DHT22;21791;42.828;74.582;2022-12-29T06:18:15;5.50;88.70
35678;DHT22;21791;42.828;74.582;2022-12-29T06:20:42;5.40;83.70
35678;DHT22;21791;42.828;74.582;2022-12-29T06:23:09;5.10;85.70
35678;DHT22;21791;42.828;74.582;2022-12-29T06:25:37;5.50;86.50
35678;DHT22;21791;42.828;74.582;2022-12-29T06:28:04;5.70;88.40
35678;DHT22;21791;42.828;74.582;2022-12-29T06:30:32;5.90;85.60
35678;DHT22;21791;42.828;74.582;2022-12-29T06:32:59;5.60;86.80
35678;DHT22;21791;42.828;74.582;2022-12-29T06:35:26;5.40;87.10
35678;DHT22;21791;42.828;74.582;2022-12-29T06:37:52;5.60;86.70
35678;DHT22;21791;42.828;74.582;2022-12-29T06:40:19;5.90;86.20
35678;DHT22;21791;42.828;74.582;2022-12-29T06:42:45;6.30;86.00
35678;DHT22;21791;42.828;74.582;2022-12-29T06:45:12;6.00;83.80
35678;DHT22;21791;42.828;74.582;2022-12-29T06:47:38;5.60;86.10
35678;DHT22;21791;42.828;74.582;2022-12-29T06:50:06;5.60;86.70
35678;DHT22;21791;42.828;74.582;2022-12-29T06:52:33;5.50;86.30
35678;DHT22;21791;42.828;74.582;2022-12-29T06:55:00;5.50;84.80
35678;DHT22;21791;42.828;74.582;2022-12-29T06:57:27;5.40;85.90
35678;DHT22;21791;42.828;74.582;2022-12-29T06:59:53;5.50;84.40
35678;DHT22;21791;42.828;74.582;2022-12-29T07:02:22;5.70;83.30
35678;DHT22;21791;42.828;74.582;2022-12-29T07:04:52;5.40;81.80
35678;DHT22;21791;42.828;74.582;2022-12-29T07:07:19;5.40;86.00
35678;DHT22;21791;42.828;74.582;2022-12-29T07:09:46;5.60;84.00
35678;DHT22;21791;42.828;74.582;2022-12-29T07:12:13;5.80;83.50
35678;DHT22;21791;42.828;74.582;2022-12-29T07:14:39;5.30;85.40
35678;DHT22;21791;42.828;74.582;2022-12-29T07:17:06;5.60;84.60
35678;DHT22;21791;42.828;74.582;2022-12-29T07:19:33;5.60;84.70
35678;DHT22;21791;42.828;74.582;2022-12-29T07:21:59;5.40;85.90
35678;DHT22;21791;42.828;74.582;2022-12-29T07:24:27;5.40;87.60
35678;DHT22;21791;42.828;74.582;2022-12-29T07:26:53;5.80;88.20
35678;DHT22;21791;42.828;74.582;2022-12-29T07:29:19;5.70;88.50
35678;DHT22;21791;42.828;74.582;2022-12-29T07:31:46;5.30;88.60
35678;DHT22;21791;42.828;74.582;2022-12-29T07:34:12;5.00;90.00
35678;DHT22;21791;42.828;74.582;2022-12-29T07:36:39;5.20;90.70
35678;DHT22;21791;42.828;74.582;2022-12-29T07:39:05;5.30;90.30
35678;DHT22;21791;42.828;74.582;2022-12-29T07:41:32;5.10;90.70
35678;DHT22;21791;42.828;74.582;2022-12-29T07:43:58;5.00;91.70
35678;DHT22;21791;42.828;74.582;2022-12-29T07:46:25;5.10;92.90
35678;DHT22;21791;42.828;74.582;2022-12-29T07:48:51;5.10;92.60
35678;DHT22;21791;42.828;74.582;2022-12-29T07:51:18;5.10;93.10
35678;DHT22;21791;42.828;74.582;2022-12-29T07:53:44;4.80;94.90
35678;DHT22;21791;42.828;74.582;2022-12-29T07:56:11;4.70;96.80
35678;DHT22;21791;42.828;74.582;2022-12-29T07:58:37;4.70;96.50
35678;DHT22;21791;42.828;74.582;2022-12-29T08:01:04;4.60;96.90
35678;DHT22;21791;42.828;74.582;2022-12-29T08:03:31;4.60;96.20
35678;DHT22;21791;42.828;74.582;2022-12-29T08:05:58;4.90;97.10
35678;DHT22;21791;42.828;74.582;2022-12-29T08:08:25;5.20;97.60
35678;DHT22;21791;42.828;74.582;2022-12-29T08:10:51;5.10;96.50
35678;DHT22;21791;42.828;74.582;2022-12-29T08:13:18;5.20;97.10
35678;DHT22;21791;42.828;74.582;2022-12-29T08:15:44;5.00;96.80
35678;DHT22;21791;42.828;74.582;2022-12-29T08:18:10;5.20;97.90
35678;DHT22;21791;42.828;74.582;2022-12-29T08:20:37;5.30;97.30
35678;DHT22;21791;42.828;74.582;2022-12-29T08:23:03;5.60;97.10
35678;DHT22;21791;42.828;74.582;2022-12-29T08:25:30;5.30;96.90
35678;DHT22;21791;42.828;74.582;2022-12-29T08:27:56;5.30;96.40
35678;DHT22;21791;42.828;74.582;2022-12-29T08:30:23;5.40;96.70
35678;DHT22;21791;42.828;74.582;2022-12-29T08:32:49;5.50;96.10
35678;DHT22;21791;42.828;74.582;2022-12-29T08:35:16;5.40;95.80
35678;DHT22;21791;42.828;74.582;2022-12-29T08:37:42;5.40;96.20
35678;DHT22;21791;42.828;74.582;2022-12-29T08:40:09;5.70;94.20
35678;DHT22;21791;42.828;74.582;2022-12-29T08:42:36;5.40;94.30
35678;DHT22;21791;42.828;74.582;2022-12-29T08:45:03;5.10;93.60
35678;DHT22;21791;42.828;74.582;2022-12-29T08:47:30;5.00;95.90
35678;DHT22;21791;42.828;74.582;2022-12-29T08:49:57;5.10;97.20
35678;DHT22;21791;42.828;74.582;2022-12-29T08:52:23;5.30;97.90
35678;DHT22;21791;42.828;74.582;2022-12-29T08:54:50;5.00;99.90
35678;DHT22;21791;42.828;74.582;2022-12-29T08:57:16;4.90;99.90
35678;DHT22;21791;42.828;74.582;2022-12-29T08:59:43;5.00;99.90
35678;DHT22;21791;42.828;74.582;2022-12-29T09:02:13;4.70;99.90
35678;DHT22;21791;42.828;74.582;2022-12-29T09:04:39;4.30;99.90
35678;DHT22;21791;42.828;74.582;2022-12-29T09:07:06;4.40;99.90
35678;DHT22;21791;42.828;74.582;2022-12-29T09:09:33;4.40;99.90
35678;DHT22;21791;42.828;74.582;2022-12-29T09:12:00;4.50;99.90
35678;DHT22;21791;42.828;74.582;2022-12-29T09:14:26;4.40;99.90
35678;DHT22;21791;42.828;74.582;2022-12-29T09:16:54;4.60;99.90
35678;DHT22;21791;42.828;74.582;2022-12-29T09:19:39;4.60;99.90
35678;DHT22;21791;42.828;74.582;2022-12-29T09:22:06;4.40;99.90
35678;DHT22;21791;42.828;74.582;2022-12-29T09:24:32;4.60;99.90
35678;DHT22;21791;42.828;74.582;2022-12-29T09:26:59;4.60;99.90
35678;DHT22;21791;42.828;74.582;2022-12-29T09:29:25;4.30;99.90
35678;DHT22;21791;42.828;74.582;2022-12-29T09:31:52;4.10;99.90
35678;DHT22;21791;42.828;74.582;2022-12-29T09:34:18;3.80;99.90
35678;DHT22;21791;42.828;74.582;2022-12-29T09:36:45;3.70;99.90
35678;DHT22;21791;42.828;74.582;2022-12-29T09:39:12;3.50;99.90
35678;DHT22;21791;42.828;74.582;2022-12-29T09:41:40;3.20;99.90
35678;DHT22;21791;42.828;74.582;2022-12-29T09:44:29;3.30;99.90
35678;DHT22;21791;42.828;74.582;2022-12-29T09:46:59;3.40;99.90
35678;DHT22;21791;42.828;74.582;2022-12-29T09:52:15;3.30;99.90
35678;DHT22;21791;42.828;74.582;2022-12-29T09:55:05;3.20;99.90
35678;DHT22;21791;42.828;74.582;2022-12-29T09:57:40;3.40;99.90
35678;DHT22;21791;42.828;74.582;2022-12-29T10:00:23;3.40;99.90
35678;DHT22;21791;42.828;74.582;2022-12-29T10:02:59;3.10;99.90
35678;DHT22;21791;42.828;74.582;2022-12-29T10:08:30;3.00;99.90
35678;DHT22;21791;42.828;74.582;2022-12-29T10:14:33;3.10;99.90
35678;DHT22;21791;42.828;74.582;2022-12-29T10:22:52;2.80;99.90
35678;DHT22;21791;42.828;74.582;2022-12-29T10:25:25;2.60;99.90
35678;DHT22;21791;42.828;74.582;2022-12-29T10:27:54;2.50;99.90
35678;DHT22;21791;42.828;74.582;2022-12-29T10:30:23;2.50;99.90
35678;DHT22;21791;42.828;74.582;2022-12-29T10:32:58;2.50;99.90
35678;DHT22;21791;42.828;74.582;2022-12-29T10:35:36;2.40;99.90
35678;DHT22;21791;42.828;74.582;2022-12-29T10:41:05;2.30;99.90
35678;DHT22;21791;42.828;74.582;2022-12-29T10:43:45;2.20;99.90
35678;DHT22;21791;42.828;74.582;2022-12-29T10:46:24;2.10;99.90
35678;DHT22;21791;42.828;74.582;2022-12-29T10:48:51;2.10;99.90
35678;DHT22;21791;42.828;74.582;2022-12-29T10:51:33;2.00;99.90
35678;DHT22;21791;42.828;74.582;2022-12-29T10:54:23;1.90;99.90
35678;DHT22;21791;42.828;74.582;2022-12-29T10:57:05;1.80;99.90
35678;DHT22;21791;42.828;74.582;2022-12-29T10:59:36;1.80;99.90
35678;DHT22;21791;42.828;74.582;2022-12-29T11:04:53;1.70;99.90
35678;DHT22;21791;42.828;74.582;2022-12-29T11:07:22;1.60;99.90
35678;DHT22;21791;42.828;74.582;2022-12-29T11:09:49;1.50;99.90
35678;DHT22;21791;42.828;74.582;2022-12-29T11:12:30;1.50;99.90
35678;DHT22;21791;42.828;74.582;2022-12-29T11:15:15;1.40;99.90
35678;DHT22;21791;42.828;74.582;2022-12-29T11:17:51;1.40;99.90
35678;DHT22;21791;42.828;74.582;2022-12-29T11:20:33;1.30;99.90
35678;DHT22;21791;42.828;74.582;2022-12-29T11:23:01;1.10;99.90
35678;DHT22;21791;42.828;74.582;2022-12-29T11:25:29;1.10;99.90
35678;DHT22;21791;42.828;74.582;2022-12-29T11:28:03;0.90;99.90
35678;DHT22;21791;42.828;74.582;2022-12-29T11:30:32;0.90;99.90
35678;DHT22;21791;42.828;74.582;2022-12-29T11:32:58;0.80;99.90
35678;DHT22;21791;42.828;74.582;2022-12-29T11:38:02;0.60;99.90
35678;DHT22;21791;42.828;74.582;2022-12-29T11:40:30;0.60;99.90
35678;DHT22;21791;42.828;74.582;2022-12-29T11:43:00;0.50;99.90
35678;DHT22;21791;42.828;74.582;2022-12-29T11:45:34;0.40;99.90
35678;DHT22;21791;42.828;74.582;2022-12-29T11:48:09;0.30;99.90
35678;DHT22;21791;42.828;74.582;2022-12-29T11:50:40;0.10;99.90
35678;DHT22;21791;42.828;74.582;2022-12-29T11:53:41;0.00;99.90
35678;DHT22;21791;42.828;74.582;2022-12-29T11:56:15;-0.10;99.90
35678;DHT22;21791;42.828;74.582;2022-12-29T11:58:43;-0.20;99.90
35678;DHT22;21791;42.828;74.582;2022-12-29T12:01:51;-0.20;99.90
35678;DHT22;21791;42.828;74.582;2022-12-29T12:04:18;-0.30;99.90
35678;DHT22;21791;42.828;74.582;2022-12-29T12:07:17;-0.10;99.90
35678;DHT22;21791;42.828;74.582;2022-12-29T12:10:00;0.00;99.90
35678;DHT22;21791;42.828;74.582;2022-12-29T12:12:39;0.10;99.90
35678;DHT22;21791;42.828;74.582;2022-12-29T12:15:18;0.10;99.90
35678;DHT22;21791;42.828;74.582;2022-12-29T12:18:09;0.10;99.90
35678;DHT22;21791;42.828;74.582;2022-12-29T12:26:15;0.10;99.90
35678;DHT22;21791;42.828;74.582;2022-12-29T12:29:16;0.10;99.90
35678;DHT22;21791;42.828;74.582;2022-12-29T12:32:24;0.10;99.90
35678;DHT22;21791;42.828;74.582;2022-12-29T12:34:52;0.10;99.90
35678;DHT22;21791;42.828;74.582;2022-12-29T12:40:21;0.20;99.90
35678;DHT22;21791;42.828;74.582;2022-12-29T12:45:47;0.30;99.90
35678;DHT22;21791;42.828;74.582;2022-12-29T12:56:47;0.50;99.90
35678;DHT22;21791;42.828;74.582;2022-12-29T12:59:42;0.60;99.90
35678;DHT22;21791;42.828;74.582;2022-12-29T13:02:27;0.60;99.90
35678;DHT22;21791;42.828;74.582;2022-12-29T13:10:41;0.60;99.90
35678;DHT22;21791;42.828;74.582;2022-12-29T13:18:44;0.60;99.90
35678;DHT22;21791;42.828;74.582;2022-12-29T13:26:40;0.70;99.90
35678;DHT22;21791;42.828;74.582;2022-12-29T13:29:23;0.80;99.90
35678;DHT22;21791;42.828;74.582;2022-12-29T13:32:25;0.90;99.90
35678;DHT22;21791;42.828;74.582;2022-12-29T13:38:16;0.90;99.90
35678;DHT22;21791;42.828;74.582;2022-12-29T13:40:51;0.90;99.90
35678;DHT22;21791;42.828;74.582;2022-12-29T13:43:22;0.90;99.90
35678;DHT22;21791;42.828;74.582;2022-12-29T13:46:00;0.90;99.90
35678;DHT22;21791;42.828;74.582;2022-12-29T13:48:37;1.00;99.90
35678;DHT22;21791;42.828;74.582;2022-12-29T13:51:05;1.00;99.90
35678;DHT22;21791;42.828;74.582;2022-12-29T13:59:36;1.00;99.90
35678;DHT22;21791;42.828;74.582;2022-12-29T14:05:03;1.00;99.90
35678;DHT22;21791;42.828;74.582;2022-12-29T14:07:38;1.00;99.90
35678;DHT22;21791;42.828;74.582;2022-12-29T14:10:05;1.00;99.90
35678;DHT22;21791;42.828;74.582;2022-12-29T14:12:39;1.00;99.90
35678;DHT22;21791;42.828;74.582;2022-12-29T14:15:24;1.00;99.90
35678;DHT22;21791;42.828;74.582;2022-12-29T14:18:14;1.00;99.90
35678;DHT22;21791;42.828;74.582;2022-12-29T14:23:42;1.10;99.90
35678;DHT22;21791;42.828;74.582;2022-12-29T14:31:56;1.00;99.90
35678;DHT22;21791;42.828;74.582;2022-12-29T14:34:29;1.10;99.90
35678;DHT22;21791;42.828;74.582;2022-12-29T14:37:00;1.00;99.90
35678;DHT22;21791;42.828;74.582;2022-12-29T14:39:45;1.00;99.90
35678;DHT22;21791;42.828;74.582;2022-12-29T14:42:19;1.00;99.90
35678;DHT22;21791;42.828;74.582;2022-12-29T14:44:50;1.00;99.90
35678;DHT22;21791;42.828;74.582;2022-12-29T14:47:36;0.90;99.90
35678;DHT22;21791;42.828;74.582;2022-12-29T14:50:07;0.90;99.90
35678;DHT22;21791;42.828;74.582;2022-12-29T14:52:57;0.80;99.90
35678;DHT22;21791;42.828;74.582;2022-12-29T14:58:31;0.80;99.90
35678;DHT22;21791;42.828;74.582;2022-12-29T15:00:59;0.80;99.90
35678;DHT22;21791;42.828;74.582;2022-12-29T15:03:46;0.80;99.90
35678;DHT22;21791;42.828;74.582;2022-12-29T15:06:15;0.80;99.90
35678;DHT22;21791;42.828;74.582;2022-12-29T15:11:31;0.80;99.90
35678;DHT22;21791;42.828;74.582;2022-12-29T15:14:36;0.80;99.90
35678;DHT22;21791;42.828;74.582;2022-12-29T15:17:24;0.80;99.90
35678;DHT22;21791;42.828;74.582;2022-12-29T15:19:53;0.70;99.90
35678;DHT22;21791;42.828;74.582;2022-12-29T15:22:21;0.70;99.90
35678;DHT22;21791;42.828;74.582;2022-12-29T15:24:50;0.80;99.90
35678;DHT22;21791;42.828;74.582;2022-12-29T15:27:22;0.80;99.90
35678;DHT22;21791;42.828;74.582;2022-12-29T15:30:03;0.80;99.90
35678;DHT22;21791;42.828;74.582;2022-12-29T15:32:40;0.80;99.90
35678;DHT22;21791;42.828;74.582;2022-12-29T15:37:53;0.80;99.90
35678;DHT22;21791;42.828;74.582;2022-12-29T15:40:32;0.80;99.90
35678;DHT22;21791;42.828;74.582;2022-12-29T15:43:21;0.80;99.90
35678;DHT22;21791;42.828;74.582;2022-12-29T15:45:50;0.90;99.90
35678;DHT22;21791;42.828;74.582;2022-12-29T15:48:19;0.90;99.90
35678;DHT22;21791;42.828;74.582;2022-12-29T15:50:47;0.90;99.90
35678;DHT22;21791;42.828;74.582;2022-12-29T15:53:31;0.90;99.90
35678;DHT22;21791;42.828;74.582;2022-12-29T15:56:06;0.90;99.90
35678;DHT22;21791;42.828;74.582;2022-12-29T15:58:48;1.00;99.90
35678;DHT22;21791;42.828;74.582;2022-12-29T16:01:36;1.00;99.90
35678;DHT22;21791;42.828;74.582;2022-12-29T16:04:06;1.00;99.90
35678;DHT22;21791;42.828;74.582;2022-12-29T16:06:54;1.10;99.90
35678;DHT22;21791;42.828;74.582;2022-12-29T16:09:35;1.00;99.90
35678;DHT22;21791;42.828;74.582;2022-12-29T16:12:06;1.00;99.90
35678;DHT22;21791;42.828;74.582;2022-12-29T16:14:44;1.00;99.90
35678;DHT22;21791;42.828;74.582;2022-12-29T16:17:15;1.10;99.90
35678;DHT22;21791;42.828;74.582;2022-12-29T16:19:53;1.10;99.90
35678;DHT22;21791;42.828;74.582;2022-12-29T16:22:32;1.10;99.90
35678;DHT22;21791;42.828;74.582;2022-12-29T16:25:15;1.20;99.90
35678;DHT22;21791;42.828;74.582;2022-12-29T16:27:43;1.20;99.90
35678;DHT22;21791;42.828;74.582;2022-12-29T16:30:27;1.20;99.90
35678;DHT22;21791;42.828;74.582;2022-12-29T16:32:57;1.20;99.90
35678;DHT22;21791;42.828;74.582;2022-12-29T16:40:58;1.20;99.90
35678;DHT22;21791;42.828;74.582;2022-12-29T16:43:33;1.20;99.90
35678;DHT22;21791;42.828;74.582;2022-12-29T16:48:32;1.10;99.90
35678;DHT22;21791;42.828;74.582;2022-12-29T16:51:06;1.10;99.90
35678;DHT22;21791;42.828;74.582;2022-12-29T16:53:40;1.00;99.90
35678;DHT22;21791;42.828;74.582;2022-12-29T16:56:32;1.00;99.90
35678;DHT22;21791;42.828;74.582;2022-12-29T16:59:06;1.00;99.90
35678;DHT22;21791;42.828;74.582;2022-12-29T17:01:39;1.00;99.90
35678;DHT22;21791;42.828;74.582;2022-12-29T17:04:08;0.90;99.90
35678;DHT22;21791;42.828;74.582;2022-12-29T17:06:36;0.80;99.90
35678;DHT22;21791;42.828;74.582;2022-12-29T17:09:20;0.80;99.90
35678;DHT22;21791;42.828;74.582;2022-12-29T17:11:56;0.80;99.90
35678;DHT22;21791;42.828;74.582;2022-12-29T17:17:05;0.70;99.90
35678;DHT22;21791;42.828;74.582;2022-12-29T17:19:36;0.70;99.90
35678;DHT22;21791;42.828;74.582;2022-12-29T17:22:18;0.70;99.90
35678;DHT22;21791;42.828;74.582;2022-12-29T17:24:44;0.60;99.90
35678;DHT22;21791;42.828;74.582;2022-12-29T17:27:21;0.70;99.90
35678;DHT22;21791;42.828;74.582;2022-12-29T17:29:49;0.60;99.90
35678;DHT22;21791;42.828;74.582;2022-12-29T17:32:15;0.70;99.90
35678;DHT22;21791;42.828;74.582;2022-12-29T17:34:42;0.80;99.90
35678;DHT22;21791;42.828;74.582;2022-12-29T17:37:35;0.70;99.90
35678;DHT22;21791;42.828;74.582;2022-12-29T17:40:05;0.80;99.90
35678;DHT22;21791;42.828;74.582;2022-12-29T17:42:32;0.70;99.90
35678;DHT22;21791;42.828;74.582;2022-12-29T17:45:01;0.70;99.90
35678;DHT22;21791;42.828;74.582;2022-12-29T17:47:28;0.70;99.90
35678;DHT22;21791;42.828;74.582;2022-12-29T17:49:54;0.60;99.90
35678;DHT22;21791;42.828;74.582;2022-12-29T17:52:21;0.60;99.90
35678;DHT22;21791;42.828;74.582;2022-12-29T17:54:52;0.60;99.90
35678;DHT22;21791;42.828;74.582;2022-12-29T17:57:20;0.60;99.90
35678;DHT22;21791;42.828;74.582;2022-12-29T17:59:46;0.60;99.90
35678;DHT22;21791;42.828;74.582;2022-12-29T18:02:33;0.60;99.90
35678;DHT22;21791;42.828;74.582;2022-12-29T18:05:00;0.60;99.90
35678;DHT22;21791;42.828;74.582;2022-12-29T18:07:28;0.50;99.90
35678;DHT22;21791;42.828;74.582;2022-12-29T18:09:55;0.50;99.90